Time;durP1;ratioP1;P1;durP2;ratioP2;P2;SDS_P1;SDS_P2;PMS_P1;PMS_P2;Temp;Humidity;BMP_temperature;BMP_pressure;BME280_temperature;BME280_humidity;BME280_pressure;Samples;Min_cycle;Max_cycle;Signal;HPM_P1;HPM_P2
2022/01/29 00:02:02;;;;;;;207.20;68.22;;;6.80;99.90;;;;;;5056285;28;20052;-72
2022/01/29 00:04:28;;;;;;;202.75;60.72;;;6.80;99.90;;;;;;5042718;28;20121;-72
2022/01/29 00:06:53;;;;;;;208.20;56.80;;;6.70;99.90;;;;;;5057541;28;20123;-72
2022/01/29 00:09:19;;;;;;;204.10;59.28;;;6.70;99.90;;;;;;5060479;28;20064;-71
2022/01/29 00:11:45;;;;;;;196.82;56.55;;;6.70;99.90;;;;;;5056595;28;20083;-72
2022/01/29 00:14:11;;;;;;;209.75;63.63;;;6.70;99.90;;;;;;5058423;28;20037;-72
2022/01/29 00:16:37;;;;;;;215.55;62.92;;;6.70;99.90;;;;;;5059079;28;20054;-71
2022/01/29 00:19:03;;;;;;;231.20;64.18;;;6.70;99.90;;;;;;5059149;28;20518;-70
2022/01/29 00:21:30;;;;;;;222.98;63.25;;;6.70;99.90;;;;;;5055231;28;20399;-71
2022/01/29 00:23:55;;;;;;;220.32;72.35;;;6.70;99.90;;;;;;5057098;28;20036;-72
2022/01/29 00:26:23;;;;;;;220.07;59.70;;;6.70;99.90;;;;;;5064879;28;20339;-71
2022/01/29 00:28:51;;;;;;;206.38;54.17;;;6.70;99.90;;;;;;5055080;28;20407;-73
2022/01/29 00:31:17;;;;;;;188.15;59.85;;;6.70;99.90;;;;;;5085789;28;20573;-69
2022/01/29 00:33:42;;;;;;;207.82;62.45;;;6.70;99.90;;;;;;5057695;28;20037;-71
2022/01/29 00:36:08;;;;;;;220.52;66.85;;;6.80;99.90;;;;;;5056031;28;20118;-69
2022/01/29 00:38:35;;;;;;;186.65;54.97;;;6.80;99.90;;;;;;5071418;28;20055;-73
2022/01/29 00:41:01;;;;;;;181.70;53.22;;;6.70;99.90;;;;;;5092131;28;20399;-71
2022/01/29 00:43:26;;;;;;;192.73;56.92;;;6.80;99.90;;;;;;5061352;28;20093;-71
2022/01/29 00:45:52;;;;;;;197.13;55.88;;;6.70;99.90;;;;;;5071607;28;20091;-71
2022/01/29 00:48:17;;;;;;;199.43;56.15;;;6.70;99.90;;;;;;5056766;28;20029;-71
2022/01/29 00:50:43;;;;;;;204.88;57.80;;;6.70;99.90;;;;;;5056170;28;20033;-71
2022/01/29 00:53:08;;;;;;;210.98;58.25;;;6.70;99.90;;;;;;5059484;28;20094;-71
2022/01/29 00:55:34;;;;;;;199.02;54.75;;;6.70;99.90;;;;;;5056225;28;20376;-72
2022/01/29 00:57:59;;;;;;;213.48;58.28;;;6.70;99.90;;;;;;5074709;28;20038;-71
2022/01/29 01:00:25;;;;;;;203.63;53.78;;;6.70;99.90;;;;;;5073811;28;20038;-71
2022/01/29 01:02:51;;;;;;;190.32;52.28;;;6.70;99.90;;;;;;5061462;28;20032;-72
2022/01/29 01:05:16;;;;;;;200.45;54.97;;;6.70;99.90;;;;;;5075616;28;20047;-71
2022/01/29 01:07:42;;;;;;;206.60;53.53;;;6.70;99.90;;;;;;5063395;28;20064;-70
2022/01/29 01:10:10;;;;;;;209.38;56.22;;;6.70;99.90;;;;;;5056773;28;20600;-71
2022/01/29 01:12:35;;;;;;;176.15;46.35;;;6.70;99.90;;;;;;5059928;28;20115;-69
2022/01/29 01:15:02;;;;;;;189.35;53.63;;;6.80;99.90;;;;;;5071368;28;20435;-71
2022/01/29 01:17:28;;;;;;;199.05;55.35;;;6.70;99.90;;;;;;5075468;28;20044;-70
2022/01/29 01:19:53;;;;;;;191.85;52.40;;;6.70;99.90;;;;;;5058594;28;20037;-71
2022/01/29 01:22:19;;;;;;;208.15;51.97;;;6.70;99.90;;;;;;5055141;28;20391;-71
2022/01/29 01:24:45;;;;;;;196.98;53.10;;;6.80;99.90;;;;;;5055844;28;20393;-70
2022/01/29 01:27:10;;;;;;;185.57;48.63;;;6.80;99.90;;;;;;5055607;28;20434;-71
2022/01/29 01:29:36;;;;;;;187.85;51.67;;;6.80;99.90;;;;;;5055114;28;20040;-69
2022/01/29 01:32:02;;;;;;;193.05;51.75;;;6.70;99.90;;;;;;5040293;28;20163;-68
2022/01/29 01:34:32;;;;;;;204.68;58.67;;;6.70;99.90;;;;;;5072476;28;20036;-72
2022/01/29 01:37:03;;;;;;;202.90;56.30;;;6.80;99.90;;;;;;5060611;28;20108;-69
2022/01/29 01:39:33;;;;;;;214.15;67.75;;;6.80;99.90;;;;;;5080093;28;20028;-70
2022/01/29 01:42:05;;;;;;;218.50;56.90;;;6.80;99.90;;;;;;5077687;28;20032;-71
2022/01/29 01:44:45;;;;;;;201.02;55.10;;;6.80;99.90;;;;;;5081053;28;20075;-70
2022/01/29 01:47:11;;;;;;;201.77;55.80;;;6.90;99.90;;;;;;5079622;28;20035;-76
2022/01/29 01:49:37;;;;;;;202.10;56.97;;;6.80;99.90;;;;;;5065862;28;20052;-68
2022/01/29 01:52:06;;;;;;;210.02;57.88;;;6.80;99.90;;;;;;5064142;28;20076;-74
2022/01/29 01:54:32;;;;;;;219.68;64.05;;;6.90;99.90;;;;;;5068122;28;20037;-71
2022/01/29 01:56:58;;;;;;;225.20;56.92;;;6.90;99.90;;;;;;5059296;28;20043;-72
2022/01/29 01:59:24;;;;;;;211.90;64.40;;;6.90;99.90;;;;;;5071215;28;20036;-71
2022/01/29 02:01:49;;;;;;;197.02;50.08;;;6.90;99.90;;;;;;5085571;28;20455;-72
2022/01/29 02:04:15;;;;;;;189.48;51.70;;;6.90;99.90;;;;;;5080271;28;20076;-72
2022/01/29 02:06:40;;;;;;;205.52;52.17;;;6.90;99.90;;;;;;5080863;28;20044;-70
2022/01/29 02:09:06;;;;;;;203.48;55.58;;;6.90;99.90;;;;;;5077054;28;20130;-70
2022/01/29 02:11:32;;;;;;;214.15;60.58;;;6.90;99.90;;;;;;5082570;28;20096;-71
2022/01/29 02:13:59;;;;;;;205.18;57.90;;;7.00;99.90;;;;;;5056893;28;20106;-71
2022/01/29 02:16:27;;;;;;;194.40;55.60;;;6.90;99.90;;;;;;5058139;28;20276;-72
2022/01/29 02:18:53;;;;;;;196.88;58.97;;;7.00;99.90;;;;;;5058446;28;20040;-71
2022/01/29 02:21:20;;;;;;;176.40;44.33;;;7.10;99.90;;;;;;5056459;28;20033;-71
2022/01/29 02:23:45;;;;;;;194.07;55.25;;;7.00;99.90;;;;;;5074380;28;20040;-74
2022/01/29 02:26:11;;;;;;;186.73;51.17;;;7.10;99.90;;;;;;5073553;28;20048;-73
2022/01/29 02:28:37;;;;;;;201.60;53.67;;;7.10;99.90;;;;;;5067088;28;20032;-72
2022/01/29 02:31:04;;;;;;;191.10;60.08;;;7.00;99.90;;;;;;5064058;28;20079;-71
2022/01/29 02:33:35;;;;;;;180.98;49.75;;;7.10;99.90;;;;;;5077260;28;20778;-70
2022/01/29 02:36:02;;;;;;;196.07;56.35;;;7.20;99.90;;;;;;5087514;28;20086;-70
2022/01/29 02:38:28;;;;;;;191.57;51.75;;;7.10;99.90;;;;;;5063254;28;20040;-73
2022/01/29 02:40:59;;;;;;;208.07;57.08;;;7.20;99.90;;;;;;5057608;28;20037;-70
2022/01/29 02:43:34;;;;;;;186.30;45.85;;;7.20;99.90;;;;;;5065393;28;20494;-71
2022/01/29 02:46:07;;;;;;;200.02;49.55;;;7.20;99.90;;;;;;5077554;28;20040;-71
2022/01/29 02:48:33;;;;;;;194.95;53.83;;;7.20;99.90;;;;;;5058172;28;20060;-70
2022/01/29 02:50:58;;;;;;;183.50;50.22;;;7.20;99.90;;;;;;5060143;28;20065;-69
2022/01/29 02:53:24;;;;;;;201.52;51.20;;;7.30;99.90;;;;;;5057141;28;20095;-73
2022/01/29 02:55:50;;;;;;;190.38;50.13;;;7.30;99.90;;;;;;5064600;28;20036;-72
2022/01/29 02:58:15;;;;;;;188.35;54.10;;;7.30;99.90;;;;;;5059744;28;20044;-70
2022/01/29 03:00:41;;;;;;;179.00;49.13;;;7.30;99.90;;;;;;5062960;28;20040;-70
2022/01/29 03:03:07;;;;;;;174.70;53.78;;;7.30;99.90;;;;;;5063005;28;20175;-70
2022/01/29 03:05:32;;;;;;;178.07;51.38;;;7.30;99.90;;;;;;5045755;28;20040;-69
2022/01/29 03:07:58;;;;;;;161.70;49.38;;;7.40;99.90;;;;;;5066935;28;20522;-74
2022/01/29 03:10:25;;;;;;;159.80;49.47;;;7.40;99.90;;;;;;5060278;28;20028;-70
2022/01/29 03:12:51;;;;;;;167.63;46.78;;;7.40;99.90;;;;;;5063202;28;20466;-74
2022/01/29 03:15:17;;;;;;;154.55;44.92;;;7.50;99.90;;;;;;5060679;28;20034;-73
2022/01/29 03:17:43;;;;;;;138.18;44.90;;;7.50;99.90;;;;;;5064499;28;20043;-71
2022/01/29 03:20:10;;;;;;;139.15;39.83;;;7.60;99.90;;;;;;5059772;28;20475;-70
2022/01/29 03:22:36;;;;;;;121.93;39.78;;;7.60;99.90;;;;;;5075065;28;20047;-71
2022/01/29 03:25:01;;;;;;;136.05;39.88;;;7.60;99.90;;;;;;5072562;28;20135;-72
2022/01/29 03:27:27;;;;;;;131.20;43.05;;;7.70;99.90;;;;;;5078164;28;20471;-68
2022/01/29 03:29:52;;;;;;;133.45;39.70;;;7.70;99.90;;;;;;5071561;28;20059;-70
2022/01/29 03:32:18;;;;;;;130.18;43.13;;;7.80;99.90;;;;;;5069415;28;20089;-70
2022/01/29 03:34:43;;;;;;;132.80;46.08;;;7.80;99.90;;;;;;5075210;28;20499;-71
2022/01/29 03:37:09;;;;;;;131.18;44.53;;;7.80;99.90;;;;;;5082347;28;20039;-71
2022/01/29 03:39:36;;;;;;;123.30;36.33;;;7.80;99.90;;;;;;5080336;28;20040;-72
2022/01/29 03:42:06;;;;;;;99.95;32.70;;;7.80;99.90;;;;;;5080762;28;20067;-70
2022/01/29 03:44:32;;;;;;;132.57;43.00;;;7.90;99.90;;;;;;5076638;28;20395;-70
2022/01/29 03:46:58;;;;;;;135.77;45.78;;;7.90;99.90;;;;;;5070591;28;20110;-69
2022/01/29 03:49:23;;;;;;;127.22;42.35;;;7.90;99.90;;;;;;5062127;28;20037;-70
2022/01/29 03:51:49;;;;;;;122.03;40.38;;;8.00;99.90;;;;;;5080261;28;20398;-72
2022/01/29 03:54:14;;;;;;;109.70;34.42;;;7.90;99.90;;;;;;5070195;28;20124;-69
2022/01/29 03:56:40;;;;;;;129.07;44.20;;;8.00;99.90;;;;;;5053009;28;20041;-71
2022/01/29 03:59:06;;;;;;;90.38;29.33;;;8.00;99.90;;;;;;5063387;28;20033;-70
2022/01/29 04:01:31;;;;;;;119.78;38.47;;;8.00;99.90;;;;;;5071415;28;20028;-70
2022/01/29 04:03:57;;;;;;;121.35;37.95;;;8.00;99.90;;;;;;5060991;28;20040;-73
2022/01/29 04:06:24;;;;;;;129.13;38.08;;;8.00;99.90;;;;;;5083144;28;20078;-71
2022/01/29 04:08:49;;;;;;;117.38;37.85;;;8.00;99.90;;;;;;5080051;28;20058;-70
2022/01/29 04:11:15;;;;;;;98.75;29.15;;;8.00;99.90;;;;;;5079443;28;20482;-72
2022/01/29 04:13:46;;;;;;;119.70;42.38;;;8.10;99.90;;;;;;5058938;28;20134;-73
2022/01/29 04:16:13;;;;;;;111.97;39.55;;;8.10;99.90;;;;;;5081430;28;20504;-70
2022/01/29 04:18:39;;;;;;;132.60;40.20;;;8.10;99.90;;;;;;5081293;28;20039;-68
2022/01/29 04:21:05;;;;;;;120.38;39.60;;;8.00;99.90;;;;;;5062560;28;20395;-69
2022/01/29 04:23:33;;;;;;;125.82;36.30;;;8.00;99.90;;;;;;5060054;28;20026;-72
2022/01/29 04:26:00;;;;;;;117.45;35.35;;;8.10;99.90;;;;;;5069623;28;20308;-69
2022/01/29 04:28:30;;;;;;;121.78;36.97;;;8.10;99.90;;;;;;5079845;28;20090;-71
2022/01/29 04:31:03;;;;;;;88.70;28.05;;;8.00;99.90;;;;;;5077752;28;20040;-73
2022/01/29 04:33:28;;;;;;;109.60;38.20;;;8.10;99.90;;;;;;5079412;28;20127;-73
2022/01/29 04:35:56;;;;;;;107.22;31.90;;;8.20;99.90;;;;;;5058709;28;20163;-71
2022/01/29 04:38:21;;;;;;;107.22;34.22;;;8.10;99.90;;;;;;5074725;28;20427;-71
2022/01/29 04:40:47;;;;;;;91.85;26.95;;;8.20;99.90;;;;;;5078100;28;20043;-69
2022/01/29 04:43:13;;;;;;;116.53;38.30;;;8.20;99.90;;;;;;5079067;28;20049;-71
2022/01/29 04:45:40;;;;;;;124.20;37.60;;;8.20;99.90;;;;;;5081726;28;20048;-71
2022/01/29 04:48:05;;;;;;;125.70;38.50;;;8.10;99.90;;;;;;5059371;28;20478;-72
2022/01/29 04:50:31;;;;;;;115.70;35.20;;;8.10;99.90;;;;;;5072950;28;20310;-73
2022/01/29 04:52:56;;;;;;;108.32;39.83;;;8.20;99.90;;;;;;5051049;28;20040;-68
2022/01/29 04:55:22;;;;;;;114.45;35.80;;;8.20;99.90;;;;;;5060806;28;20033;-72
2022/01/29 04:57:48;;;;;;;107.65;39.65;;;8.20;99.90;;;;;;5058316;28;20041;-71
2022/01/29 05:00:21;;;;;;;108.60;34.80;;;8.30;99.90;;;;;;5071488;28;20418;-70
2022/01/29 05:02:48;;;;;;;103.80;36.85;;;8.30;99.90;;;;;;5075748;28;20059;-72
2022/01/29 05:05:14;;;;;;;113.50;35.80;;;8.30;99.90;;;;;;5076902;28;20032;-70
2022/01/29 05:07:39;;;;;;;101.68;36.17;;;8.30;99.90;;;;;;5064308;28;20441;-69
2022/01/29 05:10:06;;;;;;;101.78;32.70;;;8.30;99.90;;;;;;5068467;28;20032;-71
2022/01/29 05:12:43;;;;;;;98.90;36.13;;;8.30;99.90;;;;;;5072959;28;20497;-72
2022/01/29 05:15:18;;;;;;;100.60;38.58;;;8.30;99.90;;;;;;5078294;28;20390;-72
2022/01/29 05:28:39;;;;;;;92.20;29.90;;;8.40;99.90;;;;;;5067082;28;20047;-71
2022/01/29 05:31:05;;;;;;;99.68;35.17;;;8.40;99.90;;;;;;5063468;28;20395;-72
2022/01/29 05:33:30;;;;;;;71.35;25.15;;;8.40;99.90;;;;;;5076993;28;20394;-71
2022/01/29 05:35:56;;;;;;;95.30;34.58;;;8.40;99.90;;;;;;5076924;28;20794;-71
2022/01/29 05:38:22;;;;;;;97.15;35.50;;;8.40;99.90;;;;;;5079663;28;20067;-69
2022/01/29 05:40:47;;;;;;;95.53;35.13;;;8.40;99.90;;;;;;5076312;28;20112;-69
2022/01/29 05:43:13;;;;;;;93.85;31.35;;;8.40;99.90;;;;;;5075436;28;20041;-69
2022/01/29 05:45:38;;;;;;;97.75;34.05;;;8.40;99.90;;;;;;5051635;28;20044;-72
2022/01/29 05:48:04;;;;;;;73.45;28.20;;;8.40;99.90;;;;;;5060885;28;20041;-69
2022/01/29 05:50:30;;;;;;;84.88;31.73;;;8.50;99.90;;;;;;5057285;28;20486;-69
2022/01/29 05:52:55;;;;;;;92.05;35.47;;;8.50;99.90;;;;;;5066771;28;20033;-73
2022/01/29 05:55:22;;;;;;;84.18;34.90;;;8.50;99.90;;;;;;5073636;28;20085;-71
2022/01/29 05:57:48;;;;;;;82.82;30.75;;;8.50;99.90;;;;;;5081919;28;20119;-73
2022/01/29 06:00:14;;;;;;;80.70;30.25;;;8.50;99.90;;;;;;5057799;28;20037;-71
2022/01/29 06:02:40;;;;;;;83.88;28.95;;;8.50;99.90;;;;;;5063061;28;20048;-71
2022/01/29 06:05:06;;;;;;;85.00;30.38;;;8.60;99.90;;;;;;5066515;28;20494;-71
2022/01/29 06:07:31;;;;;;;72.78;25.40;;;8.60;99.90;;;;;;5058434;28;20044;-68
2022/01/29 06:09:57;;;;;;;85.35;29.55;;;8.50;99.90;;;;;;5056027;28;20495;-70
2022/01/29 06:12:22;;;;;;;79.18;27.05;;;8.50;99.90;;;;;;5056434;28;20055;-71
2022/01/29 06:14:48;;;;;;;75.85;26.88;;;8.50;99.90;;;;;;5079555;28;20395;-70
2022/01/29 06:17:14;;;;;;;79.07;28.00;;;8.50;99.90;;;;;;5078983;28;20037;-67
2022/01/29 06:19:39;;;;;;;73.68;28.45;;;8.50;99.90;;;;;;5077557;28;20505;-69
2022/01/29 06:22:09;;;;;;;77.63;27.73;;;8.60;99.90;;;;;;5085895;28;20495;-67
2022/01/29 06:24:35;;;;;;;64.40;27.05;;;8.50;99.90;;;;;;5074744;28;20040;-68
2022/01/29 06:27:00;;;;;;;73.05;25.90;;;8.60;99.90;;;;;;5081383;28;20037;-68
2022/01/29 06:29:26;;;;;;;73.57;27.10;;;8.60;99.90;;;;;;5062348;28;20097;-68
2022/01/29 06:31:51;;;;;;;63.97;21.83;;;8.50;99.90;;;;;;5064205;28;20036;-68
2022/01/29 06:34:17;;;;;;;63.67;24.38;;;8.60;99.90;;;;;;5067375;28;20447;-68
2022/01/29 06:36:42;;;;;;;68.07;24.48;;;8.60;99.90;;;;;;5064827;28;20033;-72
2022/01/29 06:39:08;;;;;;;72.22;25.25;;;8.70;99.90;;;;;;5068270;28;20058;-75
2022/01/29 06:41:33;;;;;;;60.15;20.77;;;8.70;99.90;;;;;;5059445;28;20036;-71
2022/01/29 06:43:59;;;;;;;54.38;22.55;;;8.70;99.90;;;;;;5064433;28;20048;-72
2022/01/29 06:46:24;;;;;;;61.15;20.83;;;8.70;99.90;;;;;;5059316;28;20044;-71
2022/01/29 06:48:50;;;;;;;59.20;22.10;;;8.70;99.90;;;;;;5073914;28;20044;-73
2022/01/29 06:51:16;;;;;;;59.80;22.77;;;8.80;99.90;;;;;;5075592;28;20089;-69
2022/01/29 06:53:42;;;;;;;64.00;21.25;;;8.70;99.90;;;;;;5078635;28;20086;-68
2022/01/29 06:56:08;;;;;;;57.67;20.80;;;8.70;99.90;;;;;;5066870;28;20046;-73
2022/01/29 06:58:34;;;;;;;59.22;22.77;;;8.70;99.90;;;;;;5061970;28;20494;-69
2022/01/29 07:00:59;;;;;;;53.78;21.77;;;8.80;99.90;;;;;;5073463;28;20047;-72
2022/01/29 07:03:25;;;;;;;55.17;22.13;;;8.70;99.90;;;;;;5074856;28;20044;-67
2022/01/29 07:05:50;;;;;;;62.00;22.00;;;8.80;99.90;;;;;;5057818;28;20380;-69
2022/01/29 07:08:17;;;;;;;55.10;22.52;;;8.80;99.90;;;;;;5065716;28;20132;-71
2022/01/29 07:10:44;;;;;;;62.75;20.95;;;8.70;99.90;;;;;;5075621;28;20051;-69
2022/01/29 07:13:09;;;;;;;53.42;19.90;;;8.70;99.90;;;;;;5058549;28;20044;-69
2022/01/29 07:15:37;;;;;;;59.33;21.40;;;8.70;99.90;;;;;;5076642;28;20044;-72
2022/01/29 07:18:02;;;;;;;69.00;23.85;;;8.70;99.90;;;;;;5079388;28;20063;-72
2022/01/29 07:20:28;;;;;;;52.90;21.20;;;8.70;99.90;;;;;;5076739;28;20036;-70
2022/01/29 07:22:53;;;;;;;56.45;19.20;;;8.70;99.90;;;;;;5077515;28;20118;-74
2022/01/29 07:25:19;;;;;;;61.72;23.40;;;8.80;99.90;;;;;;5045381;28;20039;-70
2022/01/29 07:27:44;;;;;;;60.75;21.80;;;8.80;99.90;;;;;;5058548;28;20040;-72
2022/01/29 07:30:11;;;;;;;58.70;23.73;;;8.80;99.90;;;;;;5065226;28;20032;-69
2022/01/29 07:32:42;;;;;;;60.83;20.27;;;8.80;99.90;;;;;;5056171;28;20064;-70
2022/01/29 07:35:08;;;;;;;61.75;23.25;;;8.70;99.90;;;;;;5059235;28;20093;-73
2022/01/29 07:37:33;;;;;;;56.35;18.85;;;8.70;99.90;;;;;;5064006;28;20178;-70
2022/01/29 07:39:59;;;;;;;66.10;23.40;;;8.70;99.90;;;;;;5067420;28;20040;-71
2022/01/29 07:42:24;;;;;;;56.78;22.65;;;8.70;99.90;;;;;;5078274;28;20035;-70
2022/01/29 07:44:50;;;;;;;63.72;23.80;;;8.70;99.90;;;;;;5072084;28;20040;-70
2022/01/29 07:47:16;;;;;;;66.68;22.15;;;8.70;99.90;;;;;;5080782;28;20050;-71
2022/01/29 07:49:42;;;;;;;60.60;25.02;;;8.70;99.90;;;;;;5099662;28;20046;-71
2022/01/29 07:52:07;;;;;;;60.42;21.88;;;8.70;99.90;;;;;;5076360;28;20111;-70
2022/01/29 07:54:33;;;;;;;59.83;24.38;;;8.70;99.90;;;;;;5057348;28;20459;-75
2022/01/29 07:56:58;;;;;;;54.47;22.45;;;8.70;99.90;;;;;;5063254;28;20125;-71
2022/01/29 07:59:25;;;;;;;65.90;23.27;;;8.70;99.90;;;;;;5059274;28;20064;-70
2022/01/29 08:01:50;;;;;;;57.40;21.38;;;8.70;99.90;;;;;;5056475;28;20376;-67
2022/01/29 08:04:16;;;;;;;62.25;20.90;;;8.80;99.90;;;;;;5062459;28;20044;-68
2022/01/29 08:06:42;;;;;;;48.10;20.08;;;8.80;99.90;;;;;;5081123;28;20060;-74
2022/01/29 08:09:08;;;;;;;51.85;18.10;;;8.90;99.90;;;;;;5075582;28;20093;-70
2022/01/29 08:11:35;;;;;;;46.42;20.42;;;8.90;99.90;;;;;;5075715;28;20047;-71
2022/01/29 08:14:01;;;;;;;53.83;20.50;;;8.90;99.90;;;;;;5078102;28;20036;-74
2022/01/29 08:16:26;;;;;;;49.47;17.95;;;9.00;99.90;;;;;;5076462;28;20395;-70
2022/01/29 08:18:52;;;;;;;47.13;18.80;;;9.00;99.90;;;;;;5067149;28;20036;-71
2022/01/29 08:21:18;;;;;;;44.50;16.20;;;9.00;99.90;;;;;;5074068;28;20082;-71
2022/01/29 08:23:44;;;;;;;48.88;16.92;;;9.00;99.90;;;;;;5073112;28;20400;-70
2022/01/29 08:26:11;;;;;;;38.40;17.35;;;9.00;99.90;;;;;;5076708;28;20038;-71
2022/01/29 08:28:37;;;;;;;44.70;15.35;;;9.00;99.90;;;;;;5056739;28;20498;-71
2022/01/29 08:31:03;;;;;;;40.90;16.13;;;9.10;99.90;;;;;;5075127;28;20467;-74
2022/01/29 08:33:28;;;;;;;39.40;15.40;;;9.10;99.90;;;;;;5074177;28;20217;-69
2022/01/29 08:35:54;;;;;;;46.80;16.20;;;9.10;99.90;;;;;;5079950;28;20036;-70
2022/01/29 08:38:20;;;;;;;45.58;15.55;;;9.10;99.90;;;;;;5075631;28;20075;-73
2022/01/29 08:40:46;;;;;;;45.05;16.10;;;9.20;99.90;;;;;;5077370;28;20371;-73
2022/01/29 08:43:12;;;;;;;43.58;17.58;;;9.20;99.90;;;;;;5049577;28;20074;-70
2022/01/29 08:45:37;;;;;;;48.70;18.73;;;9.10;99.90;;;;;;5062717;28;20191;-71
2022/01/29 08:48:03;;;;;;;39.92;18.17;;;9.10;99.90;;;;;;5060190;28;20037;-71
2022/01/29 08:50:29;;;;;;;44.67;14.55;;;9.20;99.90;;;;;;5077104;28;20190;-69
2022/01/29 08:52:54;;;;;;;45.03;18.08;;;9.20;99.90;;;;;;5071469;28;20036;-71
2022/01/29 08:55:21;;;;;;;43.20;18.38;;;9.30;99.90;;;;;;5055440;28;20767;-73
2022/01/29 08:57:47;;;;;;;43.78;16.60;;;9.20;99.90;;;;;;5065877;28;20036;-75
2022/01/29 09:00:13;;;;;;;44.60;17.88;;;9.20;99.90;;;;;;5058451;28;20031;-72
2022/01/29 09:02:39;;;;;;;43.97;17.10;;;9.30;99.90;;;;;;5074225;28;20037;-77
2022/01/29 09:05:06;;;;;;;44.65;17.95;;;9.20;99.90;;;;;;5052735;28;20056;-71
2022/01/29 09:07:32;;;;;;;45.95;17.55;;;9.20;99.90;;;;;;5057274;28;20056;-69
2022/01/29 09:09:57;;;;;;;46.92;16.75;;;9.30;99.90;;;;;;5056908;28;20114;-72
2022/01/29 09:12:23;;;;;;;36.03;15.15;;;9.30;99.90;;;;;;5053165;28;20076;-74
2022/01/29 09:14:49;;;;;;;37.42;15.68;;;9.30;99.90;;;;;;5060092;28;20048;-74
2022/01/29 09:17:16;;;;;;;37.75;15.55;;;9.40;99.90;;;;;;5056633;28;20048;-69
2022/01/29 09:19:41;;;;;;;35.17;16.17;;;9.40;99.90;;;;;;5043870;28;20037;-71
2022/01/29 09:22:07;;;;;;;35.70;16.45;;;9.40;99.90;;;;;;5059643;28;20087;-71
2022/01/29 09:24:32;;;;;;;39.25;15.48;;;9.40;99.90;;;;;;5073434;28;20044;-71
2022/01/29 09:26:59;;;;;;;33.95;14.60;;;9.40;99.90;;;;;;5044649;28;20446;-73
2022/01/29 09:29:24;;;;;;;36.15;14.75;;;9.40;99.90;;;;;;5050916;28;20497;-73
2022/01/29 09:31:50;;;;;;;35.53;13.93;;;9.40;99.90;;;;;;5043987;28;20048;-74
2022/01/29 09:34:15;;;;;;;33.83;12.60;;;9.50;99.90;;;;;;5072360;28;20082;-70
2022/01/29 09:36:41;;;;;;;35.63;13.63;;;9.50;99.90;;;;;;5074089;28;20036;-71
2022/01/29 09:39:06;;;;;;;33.70;12.38;;;9.50;99.90;;;;;;5074722;28;20450;-71
2022/01/29 09:41:33;;;;;;;34.35;12.05;;;9.50;99.90;;;;;;5068695;28;20131;-73
2022/01/29 09:43:58;;;;;;;34.50;10.90;;;9.50;99.90;;;;;;5077120;28;20041;-75
2022/01/29 09:46:28;;;;;;;31.42;11.25;;;9.60;99.90;;;;;;5066729;28;20029;-70
2022/01/29 09:48:59;;;;;;;27.08;9.65;;;9.60;99.90;;;;;;5056720;28;20053;-71
2022/01/29 09:51:26;;;;;;;29.65;10.40;;;9.70;99.90;;;;;;5087489;28;20475;-74
2022/01/29 09:53:51;;;;;;;26.10;8.50;;;9.70;99.90;;;;;;5055698;28;20049;-70
2022/01/29 09:56:17;;;;;;;34.70;9.27;;;9.70;99.90;;;;;;5055895;28;20368;-70
2022/01/29 09:58:43;;;;;;;31.88;9.40;;;9.70;99.90;;;;;;5071739;28;20039;-72
2022/01/29 10:01:09;;;;;;;25.48;9.68;;;9.80;99.90;;;;;;5066538;28;20036;-75
2022/01/29 10:03:35;;;;;;;23.15;8.63;;;9.80;99.90;;;;;;5072105;28;20036;-74
2022/01/29 10:06:02;;;;;;;30.38;8.98;;;9.80;99.90;;;;;;5071757;28;20036;-70
2022/01/29 10:08:29;;;;;;;25.60;8.25;;;9.80;99.90;;;;;;5057329;28;20045;-69
2022/01/29 10:10:58;;;;;;;27.27;8.50;;;9.80;99.90;;;;;;5066038;28;20132;-73
2022/01/29 10:13:35;;;;;;;23.92;7.95;;;9.80;99.90;;;;;;5079013;28;20071;-69
2022/01/29 10:16:19;;;;;;;27.77;8.00;;;9.80;99.90;;;;;;5079968;28;20089;-72
2022/01/29 10:19:00;;;;;;;19.73;7.75;;;9.80;99.90;;;;;;5103138;28;20044;-72
2022/01/29 10:21:29;;;;;;;24.88;8.02;;;9.80;99.90;;;;;;5074153;28;20040;-70
2022/01/29 10:24:16;;;;;;;21.83;6.57;;;9.80;99.90;;;;;;5068155;28;20124;-71
2022/01/29 10:26:47;;;;;;;25.67;8.40;;;9.90;99.90;;;;;;5055250;28;20049;-72
2022/01/29 10:29:21;;;;;;;23.35;7.72;;;9.90;99.90;;;;;;5050383;28;20048;-69
2022/01/29 10:31:49;;;;;;;22.20;7.03;;;9.90;99.90;;;;;;5060538;28;20103;-70
2022/01/29 10:34:29;;;;;;;23.67;7.80;;;9.90;99.90;;;;;;5058453;28;20036;-69
2022/01/29 10:37:16;;;;;;;28.67;10.45;;;10.00;99.90;;;;;;5070535;28;20475;-69
2022/01/29 10:39:56;;;;;;;32.22;13.15;;;10.00;99.90;;;;;;5055093;28;20051;-70
2022/01/29 10:42:27;;;;;;;44.60;17.67;;;10.00;99.90;;;;;;5052647;28;20496;-69
2022/01/29 10:44:56;;;;;;;55.50;22.35;;;10.00;99.90;;;;;;5081736;28;20044;-71
2022/01/29 10:47:22;;;;;;;56.28;19.52;;;10.00;99.90;;;;;;5082920;28;20040;-71
2022/01/29 10:50:02;;;;;;;59.38;24.40;;;10.10;99.90;;;;;;5090651;28;20490;-70
2022/01/29 10:52:33;;;;;;;58.70;20.48;;;10.10;99.90;;;;;;5081811;28;20040;-72
2022/01/29 10:55:05;;;;;;;57.25;18.58;;;10.20;99.90;;;;;;5058767;28;20093;-67
2022/01/29 10:57:39;;;;;;;40.30;12.48;;;10.20;99.90;;;;;;5076366;28;20055;-71
2022/01/29 11:00:22;;;;;;;35.53;11.65;;;10.20;99.90;;;;;;5091568;28;20415;-67
2022/01/29 11:02:51;;;;;;;31.92;10.32;;;10.30;99.90;;;;;;5077093;28;20032;-73
2022/01/29 11:05:17;;;;;;;22.70;6.50;;;10.20;99.90;;;;;;5071675;28;20048;-69
2022/01/29 11:07:50;;;;;;;24.10;7.88;;;10.20;99.90;;;;;;5070067;28;20053;-67
2022/01/29 11:10:17;;;;;;;21.13;6.85;;;10.30;99.90;;;;;;5071441;28;20049;-74
2022/01/29 11:12:44;;;;;;;22.25;6.68;;;10.30;99.90;;;;;;5061656;28;20049;-71
2022/01/29 11:15:10;;;;;;;24.40;6.07;;;10.30;99.90;;;;;;5060641;28;20044;-71
2022/01/29 11:17:36;;;;;;;15.05;5.88;;;10.30;99.90;;;;;;5067845;28;20056;-69
2022/01/29 11:20:03;;;;;;;21.88;6.18;;;10.40;99.90;;;;;;5085810;28;20498;-69
2022/01/29 11:22:32;;;;;;;23.10;8.32;;;10.40;99.90;;;;;;5066690;28;20040;-70
2022/01/29 11:25:05;;;;;;;31.20;8.07;;;10.50;99.90;;;;;;5087695;28;20039;-71
2022/01/29 11:27:33;;;;;;;31.00;8.63;;;10.50;99.90;;;;;;5054764;28;20041;-69
2022/01/29 11:30:08;;;;;;;25.75;7.20;;;10.50;99.90;;;;;;5057248;28;20059;-72
2022/01/29 11:32:44;;;;;;;23.40;6.07;;;10.60;99.90;;;;;;5064141;28;20044;-68
2022/01/29 11:35:18;;;;;;;20.73;4.40;;;10.60;99.90;;;;;;5068597;28;21360;-70
2022/01/29 11:37:57;;;;;;;23.95;6.47;;;10.70;99.90;;;;;;5055051;28;20048;-70
2022/01/29 11:40:37;;;;;;;21.77;5.50;;;10.60;99.90;;;;;;5064684;28;20037;-71
2022/01/29 11:43:14;;;;;;;20.83;5.20;;;10.60;99.90;;;;;;5103439;28;20335;-70
2022/01/29 11:45:43;;;;;;;20.13;4.32;;;10.60;99.90;;;;;;5061878;28;20091;-70
2022/01/29 11:48:35;;;;;;;16.33;4.85;;;10.60;99.90;;;;;;5073517;28;20049;-70
2022/01/29 11:51:02;;;;;;;19.65;5.55;;;10.60;99.90;;;;;;5045118;28;20053;-68
2022/01/29 11:53:46;;;;;;;15.68;5.30;;;10.70;99.90;;;;;;5050535;28;20492;-71
2022/01/29 11:56:27;;;;;;;20.83;5.43;;;10.70;99.90;;;;;;5051135;28;20063;-70
2022/01/29 11:59:18;;;;;;;26.95;6.15;;;10.70;99.90;;;;;;5058325;28;20029;-72
2022/01/29 12:01:48;;;;;;;22.48;6.65;;;10.70;99.90;;;;;;5053628;28;20053;-69
2022/01/29 12:04:16;;;;;;;17.30;4.65;;;10.80;99.90;;;;;;5084688;28;20048;-72
2022/01/29 12:07:46;;;;;;;21.48;6.65;;;10.80;99.90;;;;;;5079821;28;20039;-71
2022/01/29 12:10:09;;;;;;;20.05;5.15;;;10.80;99.90;;;;;;5061132;28;20808;-67
2022/01/29 12:12:35;;;;;;;;;;;10.80;99.90;;;;;;5083239;28;20529;-70
2022/01/29 12:15:11;;;;;;;16.58;5.70;;;10.70;99.90;;;;;;5077425;28;19932;-67
2022/01/29 12:17:57;;;;;;;17.65;5.35;;;10.70;99.90;;;;;;5070822;28;20040;-69
2022/01/29 12:20:25;;;;;;;18.00;5.30;;;10.70;99.90;;;;;;5082231;28;20039;-71
2022/01/29 12:22:57;;;;;;;17.13;4.45;;;10.60;99.90;;;;;;5077488;28;20032;-69
2022/01/29 12:25:26;;;;;;;16.67;5.78;;;10.60;99.90;;;;;;5076037;28;20095;-71
2022/01/29 12:27:55;;;;;;;16.90;4.43;;;10.60;99.90;;;;;;5097758;28;20036;-69
2022/01/29 12:30:28;;;;;;;21.00;5.75;;;10.70;99.90;;;;;;5073135;28;20040;-73
2022/01/29 12:33:03;;;;;;;16.92;5.50;;;10.60;99.90;;;;;;5087058;28;20143;-71
2022/01/29 12:35:40;;;;;;;14.43;5.18;;;10.60;99.90;;;;;;5075382;28;20044;-70
2022/01/29 12:38:11;;;;;;;22.50;5.57;;;10.70;99.90;;;;;;5064588;28;20123;-71
2022/01/29 12:40:54;;;;;;;16.48;5.07;;;10.70;99.90;;;;;;5093756;28;20040;-70
2022/01/29 12:43:33;;;;;;;19.70;4.07;;;10.70;99.90;;;;;;5081957;28;20051;-70
2022/01/29 12:46:19;;;;;;;16.83;4.75;;;10.70;99.90;;;;;;5055723;28;20526;-71
2022/01/29 12:48:57;;;;;;;18.20;5.03;;;10.70;99.90;;;;;;5060077;28;20479;-69